createdAt,value
2019-02-23T00:01:26.853Z,0.70
2019-02-23T00:03:56.628Z,0.60
2019-02-23T00:06:29.748Z,0.67
2019-02-23T00:08:52.891Z,0.77
2019-02-23T00:11:20.338Z,0.70
2019-02-23T00:13:53.143Z,0.60
2019-02-23T00:16:24.482Z,0.90
2019-02-23T00:18:53.344Z,0.80
2019-02-23T00:21:23.405Z,0.50
2019-02-23T00:23:50.694Z,0.80
2019-02-23T00:26:21.964Z,0.60
2019-02-23T00:28:50.924Z,0.50
2019-02-23T00:31:18.021Z,0.70
2019-02-23T00:33:48.059Z,0.80
2019-02-23T00:36:15.106Z,0.60
2019-02-23T00:38:42.180Z,0.60
2019-02-23T00:41:09.230Z,0.50
2019-02-23T00:43:36.283Z,0.53
2019-02-23T00:46:03.350Z,0.80
2019-02-23T00:48:30.414Z,0.90
2019-02-23T00:50:57.483Z,0.40
2019-02-23T00:53:24.635Z,0.97
2019-02-23T00:55:51.755Z,0.80
2019-02-23T00:58:18.889Z,0.70
2019-02-23T01:00:45.900Z,0.60
2019-02-23T01:03:12.962Z,0.70
2019-02-23T01:05:40.020Z,0.80
2019-02-23T01:08:07.079Z,0.67
2019-02-23T01:10:34.196Z,0.70
2019-02-23T01:13:01.263Z,0.60
2019-02-23T01:15:28.346Z,1.10
2019-02-23T01:17:55.427Z,0.70
2019-02-23T01:20:22.590Z,0.70
2019-02-23T01:22:52.700Z,0.57
2019-02-23T01:25:19.778Z,0.60
2019-02-23T01:27:46.872Z,0.57
2019-02-23T01:30:13.934Z,1.30
2019-02-23T01:35:04.582Z,0.83
2019-02-23T01:37:31.645Z,0.70
2019-02-23T01:39:58.715Z,0.60
2019-02-23T01:42:25.807Z,0.77
2019-02-23T01:44:52.856Z,0.90
2019-02-23T01:47:20.009Z,0.53
2019-02-23T01:49:47.073Z,0.70
2019-02-23T01:52:14.148Z,1.10
2019-02-23T01:54:41.243Z,0.90
2019-02-23T01:57:10.362Z,0.93
2019-02-23T01:59:37.582Z,0.70
2019-02-23T02:02:04.656Z,0.90
2019-02-23T02:04:31.713Z,1.20
2019-02-23T02:06:58.778Z,0.80
2019-02-23T02:09:25.839Z,0.97
2019-02-23T02:11:52.899Z,0.80
2019-02-23T02:14:21.877Z,0.90
2019-02-23T02:16:49.002Z,1.13
2019-02-23T02:19:16.098Z,1.20
2019-02-23T02:21:43.435Z,1.03
2019-02-23T02:24:10.497Z,1.10
2019-02-23T02:26:37.567Z,1.30
2019-02-23T02:29:04.630Z,1.30
2019-02-23T02:31:31.730Z,1.13
2019-02-23T02:34:09.762Z,1.37
2019-02-23T02:36:36.832Z,1.30
2019-02-23T02:39:10.088Z,1.30
2019-02-23T02:41:37.164Z,1.40
2019-02-23T02:44:04.230Z,1.33
2019-02-23T02:46:31.291Z,1.50
2019-02-23T02:48:58.357Z,1.80
2019-02-23T02:51:25.419Z,1.33
2019-02-23T02:53:52.479Z,1.70
2019-02-23T02:56:19.536Z,1.30
2019-02-23T02:58:46.596Z,1.40
2019-02-23T03:01:13.662Z,1.40
2019-02-23T03:03:40.730Z,1.73
2019-02-23T03:06:07.778Z,1.30
2019-02-23T03:08:34.841Z,1.27
2019-02-23T03:11:01.931Z,1.67
2019-02-23T03:13:29.000Z,1.47
2019-02-23T03:15:56.052Z,1.30
2019-02-23T03:18:23.129Z,1.50
2019-02-23T03:20:50.186Z,1.60
2019-02-23T03:23:17.242Z,1.70
2019-02-23T03:25:44.307Z,1.47
2019-02-23T03:28:13.391Z,1.60
2019-02-23T03:30:40.456Z,1.10
2019-02-23T03:33:07.511Z,2.00
2019-02-23T03:35:34.577Z,1.93
2019-02-23T03:38:01.645Z,1.83
2019-02-23T03:40:28.700Z,1.40
2019-02-23T03:42:55.762Z,1.90
2019-02-23T03:45:22.816Z,2.20
2019-02-23T03:47:49.867Z,2.23
2019-02-23T03:50:16.929Z,2.53
2019-02-23T03:52:43.993Z,2.03
2019-02-23T03:55:11.179Z,2.50
2019-02-23T03:57:38.236Z,2.47
2019-02-23T04:00:06.501Z,2.83
2019-02-23T04:02:33.556Z,2.40
2019-02-23T04:05:00.624Z,2.97
2019-02-23T04:07:27.683Z,2.50
2019-02-23T04:09:54.736Z,3.77
2019-02-23T04:12:21.806Z,3.60
2019-02-23T04:14:48.870Z,3.30
2019-02-23T04:17:15.943Z,3.80
2019-02-23T04:19:43.003Z,3.40
2019-02-23T04:22:10.064Z,2.97
2019-02-23T04:24:37.118Z,3.60
2019-02-23T04:27:04.180Z,4.00
2019-02-23T04:29:31.236Z,4.47
2019-02-23T04:31:58.295Z,3.47
2019-02-23T04:34:25.359Z,3.70
2019-02-23T04:36:52.420Z,3.30
2019-02-23T04:39:19.513Z,3.57
2019-02-23T04:41:46.568Z,4.23
2019-02-23T04:44:13.632Z,3.87
2019-02-23T04:46:40.687Z,3.80
2019-02-23T04:49:07.759Z,4.03
2019-02-23T04:51:34.849Z,3.97
2019-02-23T04:54:01.908Z,3.90
2019-02-23T04:56:29.016Z,4.17
2019-02-23T04:58:56.111Z,3.80
2019-02-23T05:01:23.174Z,4.00
2019-02-23T05:03:50.232Z,3.23
2019-02-23T05:06:17.300Z,4.13
2019-02-23T05:08:44.531Z,4.37
2019-02-23T05:11:11.650Z,4.27
2019-02-23T05:13:38.677Z,4.47
2019-02-23T05:16:05.736Z,4.30
2019-02-23T05:18:32.789Z,4.43
2019-02-23T05:20:59.849Z,5.70
2019-02-23T05:23:26.908Z,4.93
2019-02-23T05:25:53.966Z,3.80
2019-02-23T05:28:21.020Z,4.20
2019-02-23T05:30:48.083Z,4.27
2019-02-23T05:33:15.205Z,5.27
2019-02-23T05:35:42.258Z,5.20
2019-02-23T05:38:09.321Z,5.30
2019-02-23T05:40:36.382Z,4.53
2019-02-23T05:43:03.459Z,5.47
2019-02-23T05:45:30.508Z,4.53
2019-02-23T05:47:57.585Z,5.93
2019-02-23T05:50:24.654Z,5.17
2019-02-23T05:52:51.733Z,4.50
2019-02-23T05:55:18.821Z,4.80
2019-02-23T05:57:45.911Z,5.57
2019-02-23T06:00:13.304Z,4.47
2019-02-23T06:02:40.376Z,4.30
2019-02-23T06:05:07.921Z,6.40
2019-02-23T06:07:34.972Z,5.00
2019-02-23T06:10:02.452Z,5.20
2019-02-23T06:12:29.597Z,5.03
2019-02-23T06:14:56.652Z,5.03
2019-02-23T06:17:23.719Z,5.87
2019-02-23T06:19:50.783Z,6.23
2019-02-23T06:22:17.877Z,7.17
2019-02-23T06:24:44.971Z,4.63
2019-02-23T06:27:12.077Z,4.53
2019-02-23T06:29:39.181Z,5.63
2019-02-23T06:32:06.241Z,5.67
2019-02-23T06:34:33.299Z,6.20
2019-02-23T06:37:00.395Z,5.50
2019-02-23T06:39:27.497Z,5.67
2019-02-23T06:41:54.606Z,6.37
2019-02-23T06:44:21.665Z,6.77
2019-02-23T06:46:48.759Z,5.87
2019-02-23T06:49:15.817Z,5.43
2019-02-23T06:51:42.922Z,5.70
2019-02-23T06:54:10.046Z,5.33
2019-02-23T06:56:37.110Z,5.27
2019-02-23T06:59:04.221Z,4.50
2019-02-23T07:01:31.288Z,4.80
2019-02-23T07:03:58.404Z,5.33
2019-02-23T07:06:25.491Z,5.27
2019-02-23T07:08:52.579Z,6.37
2019-02-23T07:11:19.666Z,4.37
2019-02-23T07:13:46.725Z,5.50
2019-02-23T07:16:13.770Z,4.77
2019-02-23T07:18:40.847Z,3.77
2019-02-23T07:21:07.900Z,3.60
2019-02-23T07:23:34.955Z,3.50
2019-02-23T07:26:02.035Z,3.50
2019-02-23T07:28:29.096Z,4.00
2019-02-23T07:30:56.151Z,3.87
2019-02-23T07:33:32.377Z,3.50
2019-02-23T07:35:52.282Z,4.07
2019-02-23T07:38:19.344Z,3.03
2019-02-23T07:40:46.403Z,2.80
2019-02-23T07:43:13.454Z,3.00
2019-02-23T07:45:40.560Z,2.90
2019-02-23T07:48:07.661Z,3.10
2019-02-23T07:50:34.727Z,2.57
2019-02-23T07:53:01.789Z,3.10
2019-02-23T07:55:28.888Z,3.17
2019-02-23T07:57:55.951Z,2.90
2019-02-23T08:00:23.017Z,2.23
2019-02-23T08:02:51.197Z,3.00
2019-02-23T08:05:18.279Z,3.10
2019-02-23T08:07:45.519Z,2.30
2019-02-23T08:10:12.623Z,2.80
2019-02-23T08:12:39.741Z,2.77
2019-02-23T08:15:07.338Z,3.30
2019-02-23T08:17:34.562Z,2.83
2019-02-23T08:20:01.803Z,2.77
2019-02-23T08:22:37.059Z,2.40
2019-02-23T08:24:59.249Z,3.17
2019-02-23T08:27:26.535Z,2.50
2019-02-23T08:29:55.704Z,2.63
2019-02-23T08:32:22.798Z,2.60
2019-02-23T08:34:49.859Z,2.60
2019-02-23T08:37:17.315Z,2.70
2019-02-23T08:39:44.394Z,2.87
2019-02-23T08:42:11.559Z,2.67
2019-02-23T08:44:39.981Z,2.70
2019-02-23T08:47:07.080Z,2.77
2019-02-23T08:49:34.140Z,2.80
2019-02-23T08:52:01.224Z,2.90
2019-02-23T08:54:28.320Z,2.17
2019-02-23T08:56:55.479Z,2.53
2019-02-23T08:59:22.571Z,2.30
2019-02-23T09:01:49.637Z,2.30
2019-02-23T09:04:16.724Z,2.80
2019-02-23T09:06:43.807Z,2.20
2019-02-23T09:09:10.885Z,2.80
2019-02-23T09:11:37.965Z,2.40
2019-02-23T09:14:05.034Z,2.30
2019-02-23T09:16:32.171Z,2.60
2019-02-23T09:18:59.218Z,2.80
2019-02-23T09:21:26.346Z,1.97
2019-02-23T09:23:53.424Z,2.73
2019-02-23T09:26:20.489Z,2.50
2019-02-23T09:28:47.552Z,2.40
2019-02-23T09:31:14.652Z,2.97
2019-02-23T09:33:41.705Z,2.17
2019-02-23T09:36:08.859Z,2.63
2019-02-23T09:38:35.941Z,2.90
2019-02-23T09:41:03.010Z,1.93
2019-02-23T09:43:30.124Z,2.67
2019-02-23T09:45:57.187Z,2.40
2019-02-23T09:48:24.244Z,2.40
2019-02-23T09:50:51.321Z,2.60
2019-02-23T09:53:18.397Z,2.40
2019-02-23T09:55:45.462Z,2.20
2019-02-23T09:58:12.539Z,1.90
2019-02-23T10:00:39.619Z,1.50
2019-02-23T10:03:06.696Z,2.17
2019-02-23T10:05:33.762Z,2.10
2019-02-23T10:08:00.814Z,2.17
2019-02-23T10:10:27.911Z,1.73
2019-02-23T10:12:54.966Z,1.90
2019-02-23T10:15:22.013Z,2.60
2019-02-23T10:17:49.096Z,1.93
2019-02-23T10:20:16.178Z,2.13
2019-02-23T10:22:43.246Z,2.10
2019-02-23T10:25:10.315Z,2.20
2019-02-23T10:27:37.454Z,2.20
2019-02-23T10:30:05.162Z,2.87
2019-02-23T10:32:32.261Z,2.20
2019-02-23T10:34:59.383Z,2.80
2019-02-23T10:37:26.422Z,2.50
2019-02-23T10:39:53.500Z,2.37
2019-02-23T10:42:20.573Z,2.27
2019-02-23T10:44:47.676Z,2.20
2019-02-23T10:47:14.819Z,2.03
2019-02-23T10:49:41.962Z,3.00
2019-02-23T10:52:09.059Z,2.90
2019-02-23T10:54:36.110Z,2.23
2019-02-23T10:57:03.393Z,2.47
2019-02-23T10:59:30.507Z,2.60
2019-02-23T11:01:57.595Z,2.27
2019-02-23T11:04:24.672Z,2.67
2019-02-23T11:06:51.737Z,2.40
2019-02-23T11:09:27.224Z,2.13
2019-02-23T11:11:54.337Z,2.20
2019-02-23T11:14:21.404Z,2.70
2019-02-23T11:16:48.737Z,2.90
2019-02-23T11:19:15.744Z,2.60
2019-02-23T11:21:42.856Z,3.13
2019-02-23T11:24:10.052Z,2.70
2019-02-23T11:26:38.258Z,2.40
2019-02-23T11:29:05.406Z,2.60
2019-02-23T11:31:32.479Z,2.90
2019-02-23T11:33:59.733Z,2.10
2019-02-23T11:36:26.816Z,2.20
2019-02-23T11:38:56.905Z,2.30
2019-02-23T11:41:24.068Z,2.83
2019-02-23T11:43:56.603Z,2.30
2019-02-23T11:46:25.885Z,2.73
2019-02-23T11:48:53.116Z,2.80
2019-02-23T11:51:27.228Z,2.60
2019-02-23T11:54:02.873Z,3.13
2019-02-23T11:56:32.643Z,2.00
2019-02-23T11:59:00.536Z,2.20
2019-02-23T12:01:35.720Z,2.57
2019-02-23T12:04:10.080Z,1.80
2019-02-23T12:06:42.521Z,2.13
2019-02-23T12:09:12.417Z,2.93
2019-02-23T12:11:46.156Z,1.77
2019-02-23T12:14:18.326Z,2.47
2019-02-23T12:16:45.480Z,2.70
2019-02-23T12:19:18.317Z,2.67
2019-02-23T12:21:54.981Z,3.43
2019-02-23T12:24:24.849Z,2.40
2019-02-23T12:26:53.805Z,2.90
2019-02-23T12:29:20.871Z,3.20
2019-02-23T12:31:47.932Z,3.10
2019-02-23T12:34:14.980Z,3.07
2019-02-23T12:36:42.117Z,2.40
2019-02-23T12:39:09.147Z,2.70
2019-02-23T12:41:38.943Z,2.80
2019-02-23T12:44:06.029Z,2.87
2019-02-23T12:46:36.638Z,2.43
2019-02-23T12:49:08.460Z,2.93
2019-02-23T12:51:38.655Z,3.00
2019-02-23T12:54:17.006Z,2.67
2019-02-23T12:56:48.607Z,2.60
2019-02-23T12:59:18.636Z,2.80
2019-02-23T13:01:54.162Z,2.73
2019-02-23T13:04:29.956Z,2.00
2019-02-23T13:07:02.210Z,2.63
2019-02-23T13:09:36.449Z,3.30
2019-02-23T13:12:47.262Z,2.93
2019-02-23T13:15:28.496Z,3.30
2019-02-23T13:18:33.026Z,2.93
2019-02-23T13:21:35.602Z,2.70
2019-02-23T13:24:30.352Z,3.40
2019-02-23T13:27:24.682Z,3.73
2019-02-23T13:30:23.972Z,4.07
2019-02-23T13:33:22.105Z,2.97
2019-02-23T13:36:07.194Z,3.00
2019-02-23T13:38:55.065Z,3.60
2019-02-23T13:42:08.625Z,3.20
2019-02-23T13:45:17.198Z,3.97
2019-02-23T13:48:38.165Z,3.40
2019-02-23T13:51:46.350Z,3.10
2019-02-23T13:54:47.728Z,3.40
2019-02-23T13:58:02.715Z,4.10
2019-02-23T14:01:26.430Z,3.27
2019-02-23T14:04:29.000Z,2.83
2019-02-23T14:07:34.233Z,3.10
2019-02-23T14:10:47.384Z,2.90
2019-02-23T14:13:58.205Z,2.60
2019-02-23T14:17:01.683Z,3.00
2019-02-23T14:20:05.012Z,3.33
2019-02-23T14:22:59.439Z,3.30
2019-02-23T14:26:07.559Z,2.33
2019-02-23T14:29:25.399Z,3.37
2019-02-23T14:32:25.452Z,3.40
2019-02-23T14:35:24.521Z,2.70
2019-02-23T14:38:42.247Z,3.40
2019-02-23T14:41:45.072Z,3.20
2019-02-23T14:44:58.897Z,3.10
2019-02-23T14:47:55.510Z,2.90
2019-02-23T14:50:41.613Z,2.73
2019-02-23T14:53:56.718Z,3.43
2019-02-23T14:57:01.801Z,2.50
2019-02-23T14:59:59.558Z,2.73
2019-02-23T15:03:26.736Z,2.50
2019-02-23T15:06:28.485Z,2.30
2019-02-23T15:09:39.116Z,2.50
2019-02-23T15:12:27.848Z,2.80
2019-02-23T15:15:42.409Z,2.90
2019-02-23T15:18:54.286Z,3.40
2019-02-23T15:21:53.111Z,3.03
2019-02-23T15:24:53.018Z,2.20
2019-02-23T15:27:57.141Z,3.20
2019-02-23T15:30:51.657Z,3.03
2019-02-23T15:34:07.407Z,3.13
2019-02-23T15:37:00.955Z,3.73
2019-02-23T15:40:30.725Z,2.90
2019-02-23T15:43:25.461Z,2.73
2019-02-23T15:46:19.574Z,3.00
2019-02-23T15:49:26.833Z,4.10
2019-02-23T15:51:58.518Z,3.63
2019-02-23T15:54:34.170Z,3.03
2019-02-23T15:57:03.750Z,3.73
2019-02-23T15:59:31.000Z,3.80
2019-02-23T16:01:58.132Z,4.03
2019-02-23T16:04:31.228Z,4.13
2019-02-23T16:07:01.091Z,4.57
2019-02-23T16:09:28.547Z,4.10
2019-02-23T16:11:55.857Z,4.20
2019-02-23T16:14:25.136Z,5.87
2019-02-23T16:16:53.851Z,5.03
2019-02-23T16:19:23.420Z,4.77
2019-02-23T16:25:21.850Z,5.60
2019-02-23T16:27:51.487Z,5.23
2019-02-23T16:30:19.098Z,5.23
2019-02-23T16:33:03.089Z,5.67
2019-02-23T16:35:42.092Z,5.17
2019-02-23T16:38:10.339Z,6.23
2019-02-23T16:40:38.179Z,5.70
2019-02-23T16:43:05.333Z,6.53
2019-02-23T16:45:35.171Z,6.40
2019-02-23T16:48:02.391Z,5.80
2019-02-23T16:50:29.686Z,6.33
2019-02-23T16:52:59.947Z,5.93
2019-02-23T16:55:28.220Z,5.30
2019-02-23T16:57:57.578Z,5.33
2019-02-23T17:00:24.618Z,5.47
2019-02-23T17:02:51.688Z,5.90
2019-02-23T17:05:18.755Z,5.10
2019-02-23T17:07:45.827Z,5.20
2019-02-23T17:10:12.912Z,5.30
2019-02-23T17:12:39.987Z,5.47
2019-02-23T17:15:10.372Z,6.10
2019-02-23T17:17:36.181Z,5.97
2019-02-23T17:20:03.435Z,6.73
2019-02-23T17:22:30.483Z,6.33
2019-02-23T17:24:57.555Z,5.37
2019-02-23T17:27:35.917Z,5.67
2019-02-23T17:29:53.663Z,6.87
2019-02-23T17:32:20.750Z,6.40
2019-02-23T17:34:47.999Z,6.97
2019-02-23T17:37:15.095Z,6.60
2019-02-23T17:39:42.185Z,6.30
2019-02-23T17:42:09.264Z,6.03
2019-02-23T17:44:36.342Z,5.90
2019-02-23T17:47:03.396Z,6.27
2019-02-23T17:49:30.471Z,6.27
2019-02-23T17:51:57.574Z,6.47
2019-02-23T17:54:24.626Z,7.03
2019-02-23T17:56:51.678Z,7.20
2019-02-23T17:59:18.771Z,6.20
2019-02-23T18:01:46.056Z,6.23
2019-02-23T18:04:13.140Z,6.67
2019-02-23T18:06:40.285Z,6.67
2019-02-23T18:09:07.373Z,6.27
2019-02-23T18:11:34.608Z,6.30
2019-02-23T18:14:02.101Z,6.13
2019-02-23T18:16:29.610Z,6.90
2019-02-23T18:18:57.602Z,5.47
2019-02-23T18:21:24.796Z,4.97
2019-02-23T18:23:51.885Z,5.57
2019-02-23T18:26:21.151Z,6.67
2019-02-23T18:28:48.074Z,5.97
2019-02-23T18:31:15.137Z,6.30
2019-02-23T18:33:42.198Z,6.07
2019-02-23T18:36:09.266Z,7.03
2019-02-23T18:38:36.326Z,6.63
2019-02-23T18:41:03.412Z,6.83
2019-02-23T18:43:30.458Z,7.60
2019-02-23T18:45:57.626Z,7.67
2019-02-23T18:48:24.697Z,6.57
2019-02-23T18:50:51.804Z,6.57
2019-02-23T18:53:18.908Z,6.60
2019-02-23T18:55:45.993Z,5.40
2019-02-23T18:58:13.053Z,7.83
2019-02-23T19:00:40.119Z,6.77
2019-02-23T19:03:07.204Z,13.20
2019-02-23T19:05:34.290Z,20.20
2019-02-23T19:08:01.433Z,30.27
2019-02-23T19:10:28.612Z,17.90
2019-02-23T19:12:55.671Z,8.90
2019-02-23T19:15:23.837Z,7.07
2019-02-23T19:17:50.904Z,7.60
2019-02-23T19:20:18.003Z,7.13
2019-02-23T19:22:45.086Z,7.10
2019-02-23T19:25:12.159Z,7.10
2019-02-23T19:27:39.260Z,6.80
2019-02-23T19:30:08.116Z,6.00
2019-02-23T19:32:35.186Z,6.20
2019-02-23T19:35:02.275Z,6.20
2019-02-23T19:37:29.331Z,5.83
2019-02-23T19:39:56.383Z,5.43
2019-02-23T19:42:23.489Z,6.37
2019-02-23T19:44:51.253Z,6.70
2019-02-23T19:47:22.071Z,6.40
2019-02-23T19:49:51.441Z,6.93
2019-02-23T19:52:18.500Z,6.30
2019-02-23T19:54:45.646Z,6.63
2019-02-23T19:57:12.705Z,6.67
2019-02-23T19:59:39.806Z,6.37
2019-02-23T20:02:09.926Z,6.40
2019-02-23T20:04:37.218Z,6.70
2019-02-23T20:07:07.430Z,6.63
2019-02-23T20:09:34.580Z,6.80
2019-02-23T20:12:05.040Z,5.83
2019-02-23T20:14:32.259Z,6.20
2019-02-23T20:17:06.455Z,7.27
2019-02-23T20:19:33.703Z,6.73
2019-02-23T20:22:08.151Z,5.83
2019-02-23T20:24:37.292Z,6.17
2019-02-23T20:27:08.613Z,7.27
2019-02-23T20:29:37.458Z,6.23
2019-02-23T20:32:04.662Z,6.17
2019-02-23T20:34:31.858Z,7.20
2019-02-23T20:37:03.568Z,6.87
2019-02-23T20:39:28.225Z,6.87
2019-02-23T20:41:55.347Z,5.73
2019-02-23T20:44:28.933Z,5.93
2019-02-23T20:46:58.367Z,5.93
2019-02-23T20:49:31.216Z,7.10
2019-02-23T20:51:59.776Z,6.47
2019-02-23T20:54:36.553Z,5.83
2019-02-23T20:57:13.668Z,5.47
2019-02-23T20:59:37.945Z,5.93
2019-02-23T21:02:12.765Z,6.10
2019-02-23T21:04:40.794Z,6.13
2019-02-23T21:07:08.045Z,6.03
2019-02-23T21:09:37.480Z,6.47
2019-02-23T21:12:10.229Z,6.63
2019-02-23T21:14:44.050Z,4.87
2019-02-23T21:17:13.652Z,5.53
2019-02-23T21:19:43.592Z,5.73
2019-02-23T21:22:15.243Z,5.43
2019-02-23T21:24:47.379Z,8.03
2019-02-23T21:27:21.915Z,5.37
2019-02-23T21:29:49.051Z,5.53
2019-02-23T21:32:16.132Z,6.07
2019-02-23T21:34:43.209Z,6.20
2019-02-23T21:37:10.269Z,7.27
2019-02-23T21:39:37.388Z,6.50
2019-02-23T21:42:04.472Z,7.20
2019-02-23T21:44:31.573Z,6.97
2019-02-23T21:46:58.870Z,7.57
2019-02-23T21:49:25.942Z,6.17
2019-02-23T21:51:53.059Z,5.67
2019-02-23T21:54:20.157Z,6.33
2019-02-23T21:56:47.225Z,6.47
2019-02-23T21:59:14.366Z,7.63
2019-02-23T22:01:41.521Z,6.13
2019-02-23T22:04:08.618Z,6.60
2019-02-23T22:06:35.793Z,7.20
2019-02-23T22:09:03.881Z,6.20
2019-02-23T22:11:30.948Z,7.47
2019-02-23T22:13:58.015Z,8.03
2019-02-23T22:16:25.109Z,6.90
2019-02-23T22:18:52.170Z,7.67
2019-02-23T22:21:19.258Z,6.67
2019-02-23T22:23:46.407Z,7.53
2019-02-23T22:26:13.497Z,7.03
2019-02-23T22:28:40.579Z,6.43
2019-02-23T22:31:07.647Z,6.00
2019-02-23T22:33:34.672Z,6.90
2019-02-23T22:36:01.767Z,7.27
2019-02-23T22:38:28.840Z,6.33
2019-02-23T22:40:55.899Z,6.30
2019-02-23T22:43:22.975Z,7.43
2019-02-23T22:45:50.055Z,6.13
2019-02-23T22:48:17.360Z,6.33
2019-02-23T22:50:44.440Z,6.10
2019-02-23T22:53:11.492Z,6.00
2019-02-23T22:55:38.556Z,6.40
2019-02-23T22:58:05.663Z,6.73
2019-02-23T23:01:07.614Z,7.37
2019-02-23T23:03:43.804Z,8.53
2019-02-23T23:06:12.399Z,7.03
2019-02-23T23:08:41.035Z,8.13
2019-02-23T23:11:08.544Z,7.33
2019-02-23T23:13:45.844Z,7.73
2019-02-23T23:16:15.778Z,7.40
2019-02-23T23:18:43.099Z,8.80
2019-02-23T23:21:13.854Z,7.53
2019-02-23T23:23:42.005Z,8.03
2019-02-23T23:26:11.647Z,7.83
2019-02-23T23:28:41.785Z,6.50
2019-02-23T23:31:11.505Z,6.87
2019-02-23T23:33:38.697Z,7.67
2019-02-23T23:36:05.935Z,9.40
2019-02-23T23:38:36.303Z,7.40
2019-02-23T23:41:06.063Z,7.60
2019-02-23T23:43:35.577Z,7.93
2019-02-23T23:46:02.720Z,7.77
2019-02-23T23:48:31.698Z,7.60
2019-02-23T23:51:02.512Z,9.23
2019-02-23T23:53:29.674Z,7.80
2019-02-23T23:55:56.865Z,7.33
2019-02-23T23:58:26.263Z,8.60
